Time;durP1;ratioP1;P1;durP2;ratioP2;P2;SDS_P1;SDS_P2;PMS_P1;PMS_P2;Temp;Humidity;BMP_temperature;BMP_pressure;BME280_temperature;BME280_humidity;BME280_pressure;Samples;Min_cycle;Max_cycle;Signal;HPM_P1;HPM_P2
2021/03/17 00:01:28;;;;;;;35.30;22.87;;;;;;;1.97;100.00;100234.82;253601;1105;104335;-75
2021/03/17 00:06:29;;;;;;;32.25;22.98;;;;;;;2.01;100.00;100231.27;253592;1105;104333;-75
2021/03/17 00:11:31;;;;;;;33.55;24.07;;;;;;;1.91;100.00;100235.73;253634;1105;104672;-76
2021/03/17 00:16:32;;;;;;;37.38;26.02;;;;;;;1.81;100.00;100235.80;253484;1105;104338;-75
2021/03/17 00:21:33;;;;;;;31.95;22.55;;;;;;;1.80;100.00;100232.28;253447;1105;104331;-75
2021/03/17 00:26:34;;;;;;;33.28;22.37;;;;;;;1.82;100.00;100229.66;253638;1105;104344;-76
2021/03/17 00:31:35;;;;;;;33.95;23.10;;;;;;;1.73;100.00;100225.31;253897;1105;104823;-75
2021/03/17 00:36:37;;;;;;;39.70;24.50;;;;;;;1.61;100.00;100225.40;253857;1105;104312;-74
2021/03/17 00:41:38;;;;;;;32.97;23.37;;;;;;;1.54;100.00;100229.83;253965;1105;104341;-76
2021/03/17 00:46:39;;;;;;;31.20;21.57;;;;;;;1.57;100.00;100230.69;257182;1105;104383;-75
2021/03/17 00:51:40;;;;;;;31.35;21.48;;;;;;;1.42;100.00;100229.00;259032;1104;104232;-76
2021/03/17 00:56:41;;;;;;;31.00;20.95;;;;;;;1.47;100.00;100233.37;255497;1105;104264;-75
2021/03/17 01:01:43;;;;;;;28.35;19.37;;;;;;;1.39;100.00;100226.41;253434;1105;104686;-75
2021/03/17 01:06:44;;;;;;;27.07;18.75;;;;;;;1.33;100.00;100230.80;253431;1105;104259;-76
2021/03/17 01:11:45;;;;;;;28.30;19.60;;;;;;;1.36;100.00;100236.91;253382;1105;104341;-76
2021/03/17 01:16:46;;;;;;;28.87;19.47;;;;;;;1.33;100.00;100236.95;253552;1105;104460;-76
2021/03/17 01:21:48;;;;;;;32.73;21.27;;;;;;;1.25;100.00;100233.47;253526;1105;105197;-75
2021/03/17 01:26:49;;;;;;;27.67;20.12;;;;;;;1.21;100.00;100231.72;253544;1105;104271;-75
2021/03/17 01:31:50;;;;;;;29.97;17.90;;;;;;;1.14;100.00;100233.52;253558;1105;104409;-75
2021/03/17 01:36:51;;;;;;;24.90;18.98;;;;;;;0.97;100.00;100228.33;253496;1105;104318;-76
2021/03/17 01:41:52;;;;;;;25.00;17.92;;;;;;;0.79;100.00;100226.63;253506;1105;104459;-75
2021/03/17 01:46:54;;;;;;;24.18;16.82;;;;;;;0.87;100.00;100231.84;253555;1105;104313;-76
2021/03/17 01:51:55;;;;;;;23.45;16.15;;;;;;;0.88;100.00;100233.59;253513;1105;104300;-75
2021/03/17 01:56:56;;;;;;;22.42;16.90;;;;;;;0.90;100.00;100232.71;253546;1105;104261;-75
2021/03/17 02:01:58;;;;;;;26.25;17.67;;;;;;;0.73;100.00;100232.77;253477;1105;104670;-76
2021/03/17 02:07:01;;;;;;;26.85;16.32;;;;;;;0.68;100.00;100225.77;253510;1105;104271;-75
2021/03/17 02:12:41;;;;;;;21.30;16.37;;;;;;;0.71;100.00;100236.27;253477;1105;104316;-76
2021/03/17 02:17:47;;;;;;;21.77;16.25;;;;;;;0.63;100.00;100246.79;253526;1105;104302;-76
2021/03/17 02:23:23;;;;;;;21.52;15.05;;;;;;;0.59;100.00;100237.16;253594;1105;104383;-75
2021/03/17 02:28:54;;;;;;;21.17;15.00;;;;;;;0.55;100.00;100238.91;253571;1105;104398;-76
2021/03/17 02:33:57;;;;;;;23.12;16.25;;;;;;;0.42;100.00;100235.42;253720;1105;104319;-74
2021/03/17 02:39:08;;;;;;;19.23;14.17;;;;;;;0.36;100.00;100235.43;253655;1105;104696;-76
2021/03/17 02:44:14;;;;;;;17.45;13.80;;;;;;;0.35;100.00;100246.83;253603;1105;104268;-78
2021/03/17 02:49:21;;;;;;;20.60;14.60;;;;;;;0.31;100.00;100252.92;253719;1105;104258;-75
2021/03/17 02:54:24;;;;;;;19.65;14.15;;;;;;;0.34;100.00;100246.80;253573;1105;104363;-77
2021/03/17 02:59:28;;;;;;;21.33;13.50;;;;;;;0.29;100.00;100250.31;253571;1105;104338;-76
2021/03/17 03:04:32;;;;;;;21.50;14.40;;;;;;;0.32;100.00;100254.67;253556;1105;104711;-75
2021/03/17 03:09:34;;;;;;;19.15;13.08;;;;;;;0.23;100.00;100257.29;253703;1105;104322;-77
2021/03/17 03:14:37;;;;;;;17.50;12.60;;;;;;;0.22;100.00;100255.53;253668;1105;104264;-76
2021/03/17 03:19:47;;;;;;;20.48;13.25;;;;;;;0.24;100.00;100266.91;254067;1105;104386;-75
2021/03/17 03:24:49;;;;;;;20.27;13.40;;;;;;;0.12;100.00;100263.42;253928;1105;104334;-76
2021/03/17 03:29:52;;;;;;;17.57;13.98;;;;;;;-0.04;100.00;100262.54;253614;1105;104350;-76
2021/03/17 03:34:53;;;;;;;23.35;16.40;;;;;;;0.12;100.00;100267.77;253811;1105;104258;-78
2021/03/17 03:39:55;;;;;;;18.77;14.57;;;;;;;0.11;100.00;100266.91;253536;1105;104313;-75
2021/03/17 03:44:56;;;;;;;16.00;12.25;;;;;;;0.20;100.00;100275.66;253268;1105;105675;-75
2021/03/17 03:49:59;;;;;;;18.87;13.72;;;;;;;0.32;100.00;100278.27;253423;1105;104290;-76
2021/03/17 03:55:07;;;;;;;18.27;14.45;;;;;;;0.29;100.00;100280.88;253403;1105;104781;-76
2021/03/17 04:00:09;;;;;;;19.02;13.55;;;;;;;0.28;100.00;100273.92;253678;1105;104741;-75
2021/03/17 04:05:15;;;;;;;21.33;14.75;;;;;;;0.31;100.00;100292.25;253574;1105;104264;-76
2021/03/17 04:10:19;;;;;;;20.05;14.65;;;;;;;0.30;100.00;100304.51;253532;1104;104386;-76
2021/03/17 04:15:21;;;;;;;17.35;13.75;;;;;;;0.25;100.00;100310.61;253585;1105;105837;-76
2021/03/17 04:20:30;;;;;;;18.70;13.62;;;;;;;0.32;100.00;100307.12;253568;1105;104267;-75
2021/03/17 04:25:32;;;;;;;20.55;15.05;;;;;;;0.31;100.00;100300.12;253597;1105;104351;-75
2021/03/17 04:30:33;;;;;;;18.70;13.13;;;;;;;0.30;100.00;100307.12;253604;1105;104405;-76
2021/03/17 04:35:34;;;;;;;17.35;13.00;;;;;;;0.33;100.00;100311.50;253044;1105;114729;-75
2021/03/17 04:40:37;;;;;;;18.52;13.43;;;;;;;0.31;100.00;100313.23;252777;1105;114943;-75
2021/03/17 04:45:40;;;;;;;22.40;16.02;;;;;;;0.30;100.00;100315.00;252812;1105;114943;-76
2021/03/17 04:50:44;;;;;;;16.85;13.72;;;;;;;0.38;100.00;100322.86;253310;1105;114781;-76
2021/03/17 04:55:45;;;;;;;18.67;13.60;;;;;;;0.37;100.00;100315.86;253192;1105;114800;-75
2021/03/17 05:00:48;;;;;;;19.30;14.20;;;;;;;0.39;100.00;100326.37;252330;1105;115018;-76
2021/03/17 05:05:52;;;;;;;17.73;12.15;;;;;;;0.42;100.00;100324.59;253184;1105;114840;-76
2021/03/17 05:10:54;;;;;;;15.60;11.90;;;;;;;0.39;100.00;100319.36;253097;1105;114742;-77
2021/03/17 05:15:56;;;;;;;14.80;11.77;;;;;;;0.51;100.00;100328.09;253055;1105;114775;-78
2021/03/17 05:21:00;;;;;;;14.03;11.18;;;;;;;0.45;100.00;100336.86;253199;1105;114780;-79
2021/03/17 05:26:01;;;;;;;14.40;10.90;;;;;;;0.45;100.00;100334.23;253260;1105;114898;-77
2021/03/17 05:31:03;;;;;;;17.42;13.45;;;;;;;0.51;100.00;100336.86;253094;1105;114874;-78
2021/03/17 05:36:04;;;;;;;18.17;14.20;;;;;;;0.51;100.00;100349.97;253112;1105;115099;-78
2021/03/17 05:41:06;;;;;;;17.53;12.97;;;;;;;0.53;100.00;100353.45;253116;1104;114897;-75
2021/03/17 05:46:07;;;;;;;19.27;14.33;;;;;;;0.64;100.00;100356.08;252980;1105;115224;-76
2021/03/17 05:51:09;;;;;;;15.03;10.53;;;;;;;0.59;100.00;100352.59;253061;1105;114772;-74
2021/03/17 05:56:11;;;;;;;11.53;9.38;;;;;;;0.49;100.00;100358.72;253027;1105;115111;-76
2021/03/17 06:01:16;;;;;;;11.00;8.65;;;;;;;0.53;100.00;100357.84;253388;1105;114590;-75
2021/03/17 06:06:19;;;;;;;11.50;9.23;;;;;;;0.68;100.00;100362.20;253251;1105;115156;-75
2021/03/17 06:11:22;;;;;;;13.43;9.53;;;;;;;0.57;100.00;100364.81;253039;1105;114628;-76
2021/03/17 06:16:24;;;;;;;12.43;9.28;;;;;;;0.63;100.00;100364.85;253388;1105;114614;-75
2021/03/17 06:21:26;;;;;;;12.85;9.73;;;;;;;0.67;100.00;100371.83;253077;1105;114698;-75
2021/03/17 06:26:28;;;;;;;13.55;9.63;;;;;;;0.65;100.00;100381.45;253340;1105;114613;-76
2021/03/17 06:31:30;;;;;;;15.13;10.25;;;;;;;0.61;100.00;100384.95;253262;1105;114756;-76
2021/03/17 06:36:31;;;;;;;11.33;8.83;;;;;;;0.71;100.00;100384.06;253353;1105;114861;-76
2021/03/17 06:41:53;;;;;;;13.98;9.20;;;;;;;0.81;100.00;100400.72;253098;1105;114684;-77
2021/03/17 06:47:18;;;;;;;13.05;9.98;;;;;;;0.85;100.00;100396.31;253572;1105;114931;-76
2021/03/17 06:52:33;;;;;;;13.90;10.30;;;;;;;0.85;100.00;100401.56;254934;1105;114728;-76
2021/03/17 06:57:36;;;;;;;12.98;9.83;;;;;;;0.98;100.00;100398.09;253777;1105;114927;-76
2021/03/17 07:02:39;;;;;;;14.05;9.90;;;;;;;1.04;100.00;100400.70;253523;1105;114577;-76
2021/03/17 07:07:52;;;;;;;16.93;12.13;;;;;;;0.98;100.00;100403.34;253166;1105;114703;-78
2021/03/17 07:12:55;;;;;;;15.08;11.65;;;;;;;1.02;100.00;100410.31;253125;1105;114837;-76
2021/03/17 07:18:18;;;;;;;17.35;12.15;;;;;;;1.15;100.00;100410.30;253428;1105;114902;-76
2021/03/17 07:23:41;;;;;;;18.65;12.70;;;;;;;1.15;100.00;100412.92;253131;1104;115028;-78
2021/03/17 07:28:50;;;;;;;16.87;13.35;;;;;;;1.13;100.00;100415.56;255468;1105;115074;-78
2021/03/17 07:33:52;;;;;;;16.65;12.63;;;;;;;1.07;100.00;100413.81;254599;1105;115302;-76
2021/03/17 07:38:55;;;;;;;16.23;12.03;;;;;;;1.24;100.00;100410.30;253386;1105;114818;-77
2021/03/17 07:43:57;;;;;;;19.00;13.83;;;;;;;1.25;100.00;100410.29;253449;1105;115185;-76
2021/03/17 07:49:00;;;;;;;19.57;13.43;;;;;;;1.21;100.00;100410.29;253595;1105;114755;-75
2021/03/17 07:54:03;;;;;;;16.90;12.73;;;;;;;1.21;100.00;100415.55;253240;1105;115210;-75
2021/03/17 07:59:05;;;;;;;18.10;13.57;;;;;;;1.37;100.00;100421.67;253318;1104;114755;-77
2021/03/17 08:04:07;;;;;;;17.35;12.35;;;;;;;1.35;100.00;100413.77;255141;1105;115020;-77
2021/03/17 08:09:10;;;;;;;17.87;12.00;;;;;;;1.27;100.00;100423.41;254395;1105;114799;-75
2021/03/17 08:14:13;;;;;;;14.78;11.35;;;;;;;1.27;100.00;100426.93;253567;1105;114794;-76
2021/03/17 08:19:26;;;;;;;14.30;10.80;;;;;;;1.45;100.00;100424.27;253532;1105;114933;-76
2021/03/17 08:24:47;;;;;;;16.33;10.87;;;;;;;1.59;100.00;100428.60;253072;1105;114997;-76
2021/03/17 08:30:04;;;;;;;15.60;11.40;;;;;;;1.57;100.00;100429.48;253100;1105;114933;-75
2021/03/17 08:35:06;;;;;;;14.30;9.88;;;;;;;1.48;100.00;100424.28;253475;1105;115131;-77
2021/03/17 08:40:28;;;;;;;12.67;9.00;;;;;;;1.51;100.00;100422.52;253633;1105;114683;-75
2021/03/17 08:45:29;;;;;;;10.73;9.03;;;;;;;1.66;100.00;100418.96;253484;1105;114659;-79
2021/03/17 08:50:31;;;;;;;12.35;9.65;;;;;;;1.66;100.00;100418.96;253491;1105;114498;-76
2021/03/17 08:55:39;;;;;;;12.65;9.30;;;;;;;1.62;100.00;100429.48;256873;1105;114634;-77
2021/03/17 09:00:46;;;;;;;11.73;8.90;;;;;;;1.65;100.00;100432.98;258170;1105;114413;-76
2021/03/17 09:06:07;;;;;;;9.98;8.30;;;;;;;1.88;100.00;100424.15;254841;1105;114981;-78
2021/03/17 09:11:08;;;;;;;10.70;9.05;;;;;;;1.87;100.00;100431.14;253085;1105;115033;-76
2021/03/17 09:16:10;;;;;;;10.25;8.88;;;;;;;1.82;100.00;100432.06;253054;1105;114609;-74
2021/03/17 09:21:31;;;;;;;10.55;8.53;;;;;;;1.94;100.00;100424.13;252810;1105;115007;-75
2021/03/17 09:26:32;;;;;;;10.28;8.38;;;;;;;2.15;100.00;100438.91;252922;1105;114652;-75
2021/03/17 09:31:35;;;;;;;11.18;9.10;;;;;;;2.30;100.00;100427.46;252879;1105;114593;-76
2021/03/17 09:36:36;;;;;;;11.57;7.92;;;;;;;2.23;100.00;100441.53;253063;1105;115018;-77
2021/03/17 09:41:37;;;;;;;16.50;11.47;;;;;;;2.49;100.00;100432.61;252994;1105;114674;-78
2021/03/17 09:46:43;;;;;;;10.13;8.23;;;;;;;2.70;100.00;100437.73;253027;1104;115085;-76
2021/03/17 09:51:49;;;;;;;9.48;7.53;;;;;;;2.79;100.00;100436.78;253059;1105;114705;-78
2021/03/17 09:56:56;;;;;;;11.53;7.85;;;;;;;2.96;100.00;100427.89;253247;1105;114749;-77
2021/03/17 10:02:09;;;;;;;6.42;5.58;;;;;;;3.16;100.00;100430.36;253354;1105;114889;-75
2021/03/17 10:07:13;;;;;;;8.53;6.25;;;;;;;3.53;100.00;100423.85;253012;1105;114666;-74
2021/03/17 10:12:17;;;;;;;6.90;6.15;;;;;;;3.32;100.00;100431.09;253296;1105;114405;-76
2021/03/17 10:17:25;;;;;;;8.00;6.15;;;;;;;3.09;100.00;100441.84;253086;1105;114440;-75
2021/03/17 10:22:29;;;;;;;7.08;5.70;;;;;;;3.03;100.00;100435.71;253110;1105;114741;-76
2021/03/17 10:27:37;;;;;;;6.73;6.00;;;;;;;3.09;100.00;100439.20;252945;1105;114435;-76
2021/03/17 10:32:41;;;;;;;8.58;6.70;;;;;;;3.01;100.00;100439.25;253095;1105;114403;-75
2021/03/17 10:37:44;;;;;;;7.35;6.65;;;;;;;3.00;100.00;100441.02;253195;1105;114426;-75
2021/03/17 10:42:57;;;;;;;7.60;6.47;;;;;;;2.78;100.00;100442.06;253121;1105;114751;-75
2021/03/17 10:48:12;;;;;;;8.85;6.72;;;;;;;3.01;100.00;100442.78;253111;1105;114427;-76
2021/03/17 10:53:24;;;;;;;8.63;7.73;;;;;;;3.08;100.00;100447.98;253199;1105;115020;-78
2021/03/17 10:58:30;;;;;;;8.83;6.90;;;;;;;2.98;100.00;100442.79;253037;1105;114354;-76
2021/03/17 11:03:40;;;;;;;10.48;7.47;;;;;;;2.98;100.00;100445.42;253134;1105;114929;-77
2021/03/17 11:08:44;;;;;;;11.38;7.47;;;;;;;3.12;100.00;100441.80;253081;1105;114968;-76
2021/03/17 11:13:46;;;;;;;8.13;6.57;;;;;;;3.22;100.00;100439.95;253036;1105;114728;-78
2021/03/17 11:18:51;;;;;;;6.90;6.20;;;;;;;3.24;100.00;100444.34;252984;1105;115097;-79
2021/03/17 11:23:55;;;;;;;9.73;7.57;;;;;;;3.18;100.00;100444.37;253113;1105;215207;-77
2021/03/17 11:28:58;;;;;;;7.87;6.78;;;;;;;3.08;100.00;100442.72;253112;1105;114469;-76
2021/03/17 11:34:00;;;;;;;9.07;7.33;;;;;;;2.93;100.00;100446.33;253248;1105;114527;-76
2021/03/17 11:39:11;;;;;;;12.15;8.30;;;;;;;2.92;100.00;100436.71;253758;1105;114476;-76
2021/03/17 11:44:14;;;;;;;8.23;7.03;;;;;;;2.98;100.00;100437.52;253043;1105;114917;-75
2021/03/17 11:49:18;;;;;;;7.50;6.80;;;;;;;3.09;100.00;100437.43;253104;1105;114759;-76
2021/03/17 11:54:19;;;;;;;8.37;7.53;;;;;;;3.01;100.00;100441.88;253169;1105;114821;-76
2021/03/17 11:59:20;;;;;;;8.67;7.17;;;;;;;3.02;100.00;100434.00;253667;1105;115153;-76
2021/03/17 12:04:22;;;;;;;9.35;7.55;;;;;;;3.07;100.00;100431.30;253479;1105;114386;-75
2021/03/17 12:09:23;;;;;;;9.90;7.00;;;;;;;3.09;100.00;100439.20;253168;1105;114840;-79
2021/03/17 12:14:25;;;;;;;7.58;6.80;;;;;;;3.23;100.00;100439.06;253111;1105;114781;-76
2021/03/17 12:19:26;;;;;;;9.00;6.58;;;;;;;3.28;100.00;100439.89;253521;1105;114539;-76
2021/03/17 12:24:27;;;;;;;10.47;7.03;;;;;;;3.24;100.00;100443.45;253442;1105;114486;-78
2021/03/17 12:29:29;;;;;;;10.98;8.00;;;;;;;3.18;100.00;100442.62;253281;1105;115081;-77
2021/03/17 12:34:32;;;;;;;7.70;6.40;;;;;;;3.10;100.00;100438.33;253632;1105;114616;-79
2021/03/17 12:39:33;;;;;;;11.55;8.65;;;;;;;3.19;100.00;100443.48;253476;1105;114823;-77
2021/03/17 12:44:37;;;;;;;8.85;6.92;;;;;;;3.23;100.00;100450.50;253604;1105;114923;-76
2021/03/17 12:49:38;;;;;;;10.50;7.35;;;;;;;3.19;100.00;100452.28;253389;1105;114548;-78
2021/03/17 12:54:39;;;;;;;9.33;7.50;;;;;;;3.21;100.00;100449.63;253455;1105;114648;-78
2021/03/17 12:59:41;;;;;;;12.65;7.53;;;;;;;3.18;100.00;100449.64;253393;1105;114576;-76
2021/03/17 13:04:42;;;;;;;7.97;5.37;;;;;;;3.30;100.00;100452.19;253418;1105;115117;-76
2021/03/17 13:09:45;;;;;;;10.07;6.97;;;;;;;3.43;100.00;100446.80;254156;1105;115075;-76
2021/03/17 13:14:46;;;;;;;12.43;8.00;;;;;;;3.48;100.00;100452.89;254979;1105;114550;-77
2021/03/17 13:19:47;;;;;;;15.78;7.17;;;;;;;3.49;100.00;100460.77;255108;1105;114602;-76
2021/03/17 13:24:48;;;;;;;9.10;7.22;;;;;;;3.35;100.00;100458.28;254498;1105;114583;-75
2021/03/17 13:29:50;;;;;;;10.78;5.75;;;;;;;3.25;100.00;100459.24;254100;1105;114497;-77
2021/03/17 13:34:51;;;;;;;7.17;5.17;;;;;;;3.49;100.00;100454.64;253548;1105;114658;-77
2021/03/17 13:39:53;;;;;;;9.03;6.10;;;;;;;3.79;99.44;100460.49;253456;1105;114607;-77
2021/03/17 13:45:05;;;;;;;5.08;4.58;;;;;;;5.06;91.76;100464.06;253372;1105;114202;-77
2021/03/17 13:50:12;;;;;;;6.27;4.27;;;;;;;4.04;93.31;100462.83;253481;1105;114409;-77
2021/03/17 13:55:19;;;;;;;6.28;4.45;;;;;;;3.80;95.22;100476.28;253801;1105;114224;-75
2021/03/17 14:00:22;;;;;;;5.90;4.23;;;;;;;3.69;96.08;100485.19;253435;1105;114739;-76
2021/03/17 14:05:24;;;;;;;7.03;5.37;;;;;;;3.58;96.55;100480.02;253418;1105;114280;-77
2021/03/17 14:10:29;;;;;;;6.20;5.10;;;;;;;3.43;96.15;100481.06;253515;1105;114330;-77
2021/03/17 14:15:31;;;;;;;;;;;;;;;3.40;96.89;100487.23;253287;1105;114511;-77
2021/03/17 14:20:33;;;;;;;9.23;5.20;;;;;;;3.41;96.94;100482.83;253418;1105;104639;-78
2021/03/17 14:25:36;;;;;;;5.55;4.08;;;;;;;3.49;97.18;100489.77;253396;1105;114243;-75
2021/03/17 14:30:38;;;;;;;5.03;4.10;;;;;;;3.59;96.44;100482.67;253108;1105;114626;-76
2021/03/17 14:35:40;;;;;;;9.80;5.70;;;;;;;3.61;98.39;100495.83;253828;1105;114225;-75
2021/03/17 14:40:41;;;;;;;8.53;5.67;;;;;;;3.50;98.54;100496.78;254094;1105;114645;-76
2021/03/17 14:45:43;;;;;;;6.35;5.45;;;;;;;3.38;99.27;100493.41;254217;1105;114304;-75
2021/03/17 14:50:45;;;;;;;8.25;6.28;;;;;;;3.29;100.00;100497.87;254177;1105;114235;-77
2021/03/17 14:55:46;;;;;;;7.03;5.55;;;;;;;3.22;100.00;100503.18;253362;1105;114510;-75
2021/03/17 15:00:48;;;;;;;7.00;5.60;;;;;;;3.29;100.00;100511.05;253484;1105;114377;-77
2021/03/17 15:05:50;;;;;;;8.68;4.65;;;;;;;3.40;100.00;100503.05;253010;1105;114780;-75
2021/03/17 15:10:53;;;;;;;5.92;5.00;;;;;;;3.47;99.20;100510.02;253620;1105;114621;-77
2021/03/17 15:15:54;;;;;;;9.13;5.25;;;;;;;3.51;98.26;100521.41;253326;1105;114307;-78
2021/03/17 15:20:56;;;;;;;7.37;5.95;;;;;;;3.48;98.31;100521.41;253425;1105;114394;-77
2021/03/17 15:25:58;;;;;;;6.47;5.83;;;;;;;3.37;98.20;100528.55;253521;1105;114337;-76
2021/03/17 15:30:59;;;;;;;5.90;5.03;;;;;;;3.36;98.48;100530.30;253507;1105;114962;-74
2021/03/17 15:36:00;;;;;;;7.12;5.70;;;;;;;3.31;99.30;100535.59;253549;1105;114494;-76
2021/03/17 15:41:02;;;;;;;8.58;6.45;;;;;;;3.32;100.00;100542.62;253239;1105;114755;-76
2021/03/17 15:46:04;;;;;;;8.53;5.65;;;;;;;3.36;98.61;100556.64;253513;1105;114816;-76
2021/03/17 15:51:06;;;;;;;7.50;5.75;;;;;;;3.43;99.52;100554.84;253417;1105;114580;-76
2021/03/17 15:56:07;;;;;;;8.43;6.40;;;;;;;3.42;100.00;100559.23;253326;1105;115324;-77
2021/03/17 16:01:08;;;;;;;10.13;6.37;;;;;;;3.37;100.00;100554.91;253396;1105;114503;-77
2021/03/17 16:06:10;;;;;;;7.83;6.33;;;;;;;3.26;100.00;100558.48;253422;1105;114925;-76
2021/03/17 16:11:11;;;;;;;8.00;7.20;;;;;;;3.30;100.00;100573.40;253478;1105;114860;-78
2021/03/17 16:16:16;;;;;;;7.28;5.83;;;;;;;3.35;100.00;100574.23;253602;1104;114681;-76
2021/03/17 16:21:17;;;;;;;;;;;;;;;3.33;100.00;100575.13;253579;1105;114538;-73
2021/03/17 16:26:19;;;;;;;8.90;7.00;;;;;;;3.25;100.00;100583.07;253349;1105;104633;-75
2021/03/17 16:31:20;;;;;;;10.53;9.00;;;;;;;3.18;100.00;100589.27;253501;1105;114605;-75
2021/03/17 16:36:21;;;;;;;8.43;7.50;;;;;;;3.06;100.00;100597.25;254623;1105;114610;-74
2021/03/17 16:41:23;;;;;;;10.07;8.80;;;;;;;2.98;100.00;100600.80;255450;1105;114987;-78
2021/03/17 16:46:24;;;;;;;10.53;8.63;;;;;;;2.96;100.00;100602.56;256411;1105;115087;-74
2021/03/17 16:51:25;;;;;;;15.83;10.98;;;;;;;3.06;100.00;100603.41;254497;1105;114990;-80
2021/03/17 16:56:27;;;;;;;13.62;12.15;;;;;;;3.02;100.00;100609.56;253613;1105;114728;-77
2021/03/17 17:01:28;;;;;;;16.45;14.75;;;;;;;2.98;100.00;100611.34;255343;1105;114858;-76
2021/03/17 17:06:29;;;;;;;19.62;17.48;;;;;;;2.90;100.00;100617.53;257830;1105;114720;-76
2021/03/17 17:11:31;;;;;;;17.60;15.75;;;;;;;2.86;100.00;100619.30;255904;1105;114651;-77
2021/03/17 17:16:33;;;;;;;17.20;12.40;;;;;;;2.81;100.00;100618.46;253981;1105;114827;-80
2021/03/17 17:21:34;;;;;;;16.77;13.03;;;;;;;2.86;100.00;100633.33;253466;1105;114856;-77
2021/03/17 17:26:35;;;;;;;17.37;13.78;;;;;;;2.92;100.00;100637.70;253730;1105;115235;-81
2021/03/17 17:31:36;;;;;;;17.32;13.78;;;;;;;2.92;100.00;100637.70;253817;1105;114856;-79
2021/03/17 17:36:38;;;;;;;17.97;13.13;;;;;;;2.87;100.00;100656.16;253701;1105;114899;-78
2021/03/17 17:41:39;;;;;;;13.68;11.18;;;;;;;2.79;100.00;100657.08;253595;1105;115227;-77
2021/03/17 17:46:40;;;;;;;14.33;9.08;;;;;;;2.74;100.00;100656.23;252959;1105;114744;-78
2021/03/17 17:51:41;;;;;;;13.00;10.98;;;;;;;2.70;100.00;100658.86;253310;1105;115134;-77
2021/03/17 17:56:43;;;;;;;13.38;10.40;;;;;;;2.79;100.00;100664.97;253135;1105;114748;-82
2021/03/17 18:01:44;;;;;;;15.38;12.58;;;;;;;2.81;100.00;100668.48;253234;1105;115123;-77
2021/03/17 18:06:46;;;;;;;18.30;14.55;;;;;;;2.77;100.00;100666.73;253178;1105;114801;-78
2021/03/17 18:11:47;;;;;;;19.25;14.87;;;;;;;2.73;100.00;100667.63;253161;1105;114805;-78
2021/03/17 18:16:48;;;;;;;21.70;15.80;;;;;;;2.63;100.00;100667.66;253220;1105;115097;-77
2021/03/17 18:21:49;;;;;;;31.62;19.90;;;;;;;2.59;100.00;100676.45;253307;1105;114939;-78
2021/03/17 18:26:51;;;;;;;28.67;17.70;;;;;;;2.56;100.00;100679.07;253208;1105;114853;-76
2021/03/17 18:31:52;;;;;;;24.18;15.18;;;;;;;2.60;100.00;100672.05;253049;1105;114834;-78
2021/03/17 18:36:53;;;;;;;20.08;12.82;;;;;;;2.56;100.00;100673.81;253052;1105;114828;-76
2021/03/17 18:41:54;;;;;;;14.95;10.78;;;;;;;2.52;100.00;100677.34;253174;1105;114742;-76
2021/03/17 18:46:56;;;;;;;13.53;10.17;;;;;;;2.51;100.00;100672.95;253481;1105;114788;-76
2021/03/17 18:51:57;;;;;;;13.88;11.15;;;;;;;2.49;100.00;100669.44;252940;1105;126793;-77
2021/03/17 18:56:58;;;;;;;12.82;9.35;;;;;;;2.46;100.00;100679.99;253071;1103;114778;-76
2021/03/17 19:02:00;;;;;;;13.45;9.78;;;;;;;2.46;100.00;100683.48;253220;1105;114604;-78
2021/03/17 19:07:01;;;;;;;12.82;9.38;;;;;;;2.52;100.00;100685.23;253333;1105;115426;-77
2021/03/17 19:12:03;;;;;;;14.70;11.50;;;;;;;2.55;100.00;100680.84;253157;1105;114700;-76
2021/03/17 19:17:04;;;;;;;18.92;14.60;;;;;;;2.49;100.00;100685.23;253072;1105;114960;-76
2021/03/17 19:22:05;;;;;;;23.80;16.03;;;;;;;2.42;100.00;100686.12;253048;1105;115070;-75
2021/03/17 19:27:07;;;;;;;22.32;15.98;;;;;;;2.34;100.00;100687.01;253619;1105;115160;-78
2021/03/17 19:32:09;;;;;;;18.82;13.08;;;;;;;2.35;100.00;100694.03;253249;1105;115259;-75
2021/03/17 19:37:11;;;;;;;16.45;13.60;;;;;;;2.44;100.00;100690.50;253260;1105;114797;-79
2021/03/17 19:42:12;;;;;;;21.00;14.53;;;;;;;2.48;100.00;100694.00;253569;1105;114693;-79
2021/03/17 19:47:13;;;;;;;21.85;14.73;;;;;;;2.42;100.00;100699.28;253246;1105;114768;-77
2021/03/17 19:52:15;;;;;;;18.87;15.00;;;;;;;2.31;100.00;100692.30;253372;1105;114954;-76
2021/03/17 19:57:16;;;;;;;19.70;14.00;;;;;;;2.26;100.00;100694.03;253415;1105;114764;-76
2021/03/17 20:02:18;;;;;;;12.20;10.07;;;;;;;2.26;100.00;100701.05;253404;1105;114942;-77
2021/03/17 20:07:20;;;;;;;12.13;10.20;;;;;;;2.28;100.00;100694.91;253225;1104;114741;-77
2021/03/17 20:12:21;;;;;;;17.13;12.07;;;;;;;2.32;100.00;100703.67;253099;1105;202304;-76
2021/03/17 20:17:22;;;;;;;20.62;14.90;;;;;;;2.23;100.00;100710.70;253236;1105;114803;-78
2021/03/17 20:22:25;;;;;;;23.20;16.97;;;;;;;2.19;100.00;100713.33;253277;1105;114817;-81
2021/03/17 20:27:26;;;;;;;28.35;17.15;;;;;;;2.15;100.00;100706.33;256390;1104;114800;-73
2021/03/17 20:32:27;;;;;;;19.92;13.28;;;;;;;2.23;100.00;100715.95;254722;1105;114820;-76
2021/03/17 20:37:29;;;;;;;20.97;14.18;;;;;;;2.23;100.00;100709.83;253435;1105;115000;-75
2021/03/17 20:42:31;;;;;;;17.57;12.35;;;;;;;2.25;100.00;100715.98;253524;1105;115149;-78
2021/03/17 20:47:32;;;;;;;16.15;12.43;;;;;;;2.19;100.00;100708.95;253616;1105;114746;-75
2021/03/17 20:52:34;;;;;;;15.58;10.63;;;;;;;2.19;100.00;100721.22;253519;1105;114790;-77
2021/03/17 20:57:35;;;;;;;14.43;10.10;;;;;;;2.28;100.00;100717.73;253291;1105;114946;-78
2021/03/17 21:02:37;;;;;;;15.68;9.95;;;;;;;2.30;98.63;100721.21;253167;1105;115269;-77
2021/03/17 21:07:39;;;;;;;14.03;10.25;;;;;;;2.26;98.25;100715.08;253497;1105;114786;-77
2021/03/17 21:12:40;;;;;;;13.60;9.33;;;;;;;2.16;96.96;100710.71;253452;1105;114880;-74
2021/03/17 21:17:43;;;;;;;12.13;8.60;;;;;;;2.11;95.89;100712.47;253764;1105;114412;-77
2021/03/17 21:22:45;;;;;;;11.13;7.60;;;;;;;2.07;93.89;100719.48;253623;1105;114500;-76
2021/03/17 21:27:46;;;;;;;11.88;7.85;;;;;;;1.96;95.12;100724.74;253959;1105;114696;-77
2021/03/17 21:32:55;;;;;;;10.60;7.53;;;;;;;1.85;94.55;100729.09;254091;1105;104392;-78
2021/03/17 21:37:58;;;;;;;11.12;7.30;;;;;;;1.74;93.97;100726.45;255608;1105;104329;-76
2021/03/17 21:43:00;;;;;;;10.57;7.13;;;;;;;1.68;94.25;100729.97;256772;1105;105077;-75
2021/03/17 21:48:04;;;;;;;9.10;6.15;;;;;;;1.65;94.39;100727.31;254975;1105;104335;-78
2021/03/17 21:53:06;;;;;;;10.48;6.95;;;;;;;1.69;93.53;100731.69;254589;1105;104261;-78
2021/03/17 21:58:07;;;;;;;9.93;6.53;;;;;;;1.70;93.84;100735.22;254140;1105;104306;-76
2021/03/17 22:03:09;;;;;;;10.13;6.17;;;;;;;1.63;93.02;100731.68;253901;1105;104392;-76
2021/03/17 22:08:11;;;;;;;9.08;6.55;;;;;;;1.53;93.26;100732.55;253992;1105;104252;-77
2021/03/17 22:13:13;;;;;;;8.33;5.92;;;;;;;1.50;92.98;100725.55;253878;1105;104256;-76
2021/03/17 22:18:14;;;;;;;8.10;5.53;;;;;;;1.43;93.23;100727.27;253990;1105;104409;-78
2021/03/17 22:23:19;;;;;;;8.80;5.62;;;;;;;1.43;92.34;100722.01;253981;1105;104335;-77
2021/03/17 22:28:20;;;;;;;9.08;6.33;;;;;;;1.34;92.42;100727.22;253909;1105;104335;-76
2021/03/17 22:33:22;;;;;;;8.00;5.53;;;;;;;1.30;93.13;100722.84;253871;1105;104613;-79
2021/03/17 22:38:25;;;;;;;7.05;5.50;;;;;;;1.15;93.36;100714.91;254039;1105;104303;-77
2021/03/17 22:43:27;;;;;;;9.88;6.90;;;;;;;1.05;94.24;100720.14;257733;1105;104303;-76